sensor_id;sensor_type;location;lat;lon;timestamp;pressure;altitude;pressure_sealevel;temperature;humidity
42111;BME280;27766;52.174;5.456;2023-07-31T00:00:58;100834.41;;;16.17;100.00
42111;BME280;27766;52.174;5.456;2023-07-31T00:03:26;100828.31;;;16.14;100.00
42111;BME280;27766;52.174;5.456;2023-07-31T00:05:53;100819.66;;;16.12;100.00
42111;BME280;27766;52.174;5.456;2023-07-31T00:08:20;100829.22;;;16.12;100.00
42111;BME280;27766;52.174;5.456;2023-07-31T00:10:50;100817.81;;;16.25;100.00
42111;BME280;27766;52.174;5.456;2023-07-31T00:13:18;100820.44;;;16.21;100.00
42111;BME280;27766;52.174;5.456;2023-07-31T00:15:45;100816.09;;;16.26;100.00
42111;BME280;27766;52.174;5.456;2023-07-31T00:18:12;100806.50;;;16.28;100.00
42111;BME280;27766;52.174;5.456;2023-07-31T00:20:40;100812.63;;;16.21;100.00
42111;BME280;27766;52.174;5.456;2023-07-31T00:23:07;100797.81;;;16.23;100.00
42111;BME280;27766;52.174;5.456;2023-07-31T00:25:34;100799.53;;;16.25;100.00
42111;BME280;27766;52.174;5.456;2023-07-31T00:28:01;100809.97;;;16.25;100.00
42111;BME280;27766;52.174;5.456;2023-07-31T00:30:28;100809.97;;;16.32;100.00
42111;BME280;27766;52.174;5.456;2023-07-31T00:32:56;100811.63;;;16.42;100.00
42111;BME280;27766;52.174;5.456;2023-07-31T00:35:23;100803.81;;;16.40;100.00
42111;BME280;27766;52.174;5.456;2023-07-31T00:37:51;100820.31;;;16.41;100.00
42111;BME280;27766;52.174;5.456;2023-07-31T00:40:18;100814.22;;;16.46;100.00
42111;BME280;27766;52.174;5.456;2023-07-31T00:42:45;100802.06;;;16.42;100.00
42111;BME280;27766;52.174;5.456;2023-07-31T00:45:12;100803.78;;;16.45;100.00
42111;BME280;27766;52.174;5.456;2023-07-31T00:47:39;100802.84;;;16.49;100.00
42111;BME280;27766;52.174;5.456;2023-07-31T00:50:07;100787.19;;;16.49;100.00
42111;BME280;27766;52.174;5.456;2023-07-31T00:52:35;100779.31;;;16.54;100.00
42111;BME280;27766;52.174;5.456;2023-07-31T00:55:03;100781.88;;;16.60;100.00
42111;BME280;27766;52.174;5.456;2023-07-31T00:57:32;100779.31;;;16.54;100.00
42111;BME280;27766;52.174;5.456;2023-07-31T01:00:00;100774.09;;;16.54;100.00
42111;BME280;27766;52.174;5.456;2023-07-31T01:02:27;100778.47;;;16.53;100.00
42111;BME280;27766;52.174;5.456;2023-07-31T01:04:55;100781.00;;;16.61;100.00
42111;BME280;27766;52.174;5.456;2023-07-31T01:10:49;100777.50;;;16.65;100.00
42111;BME280;27766;52.174;5.456;2023-07-31T01:13:17;100776.66;;;16.63;100.00
42111;BME280;27766;52.174;5.456;2023-07-31T01:15:44;100779.22;;;16.68;100.00
42111;BME280;27766;52.174;5.456;2023-07-31T01:18:12;100783.50;;;16.78;100.00
42111;BME280;27766;52.174;5.456;2023-07-31T01:20:42;100779.94;;;16.84;100.00
42111;BME280;27766;52.174;5.456;2023-07-31T01:26:23;100785.97;;;16.92;100.00
42111;BME280;27766;52.174;5.456;2023-07-31T01:29:06;100783.38;;;16.90;100.00
42111;BME280;27766;52.174;5.456;2023-07-31T01:31:35;100777.38;;;16.77;100.00
42111;BME280;27766;52.174;5.456;2023-07-31T01:34:03;100781.00;;;16.64;100.00
42111;BME280;27766;52.174;5.456;2023-07-31T01:36:31;100785.38;;;16.60;100.00
42111;BME280;27766;52.174;5.456;2023-07-31T01:38:59;100781.97;;;16.48;100.00
42111;BME280;27766;52.174;5.456;2023-07-31T01:41:27;100775.09;;;16.36;100.00
42111;BME280;27766;52.174;5.456;2023-07-31T01:43:55;100772.44;;;16.42;100.00
42111;BME280;27766;52.174;5.456;2023-07-31T01:46:22;100769.03;;;16.29;100.00
42111;BME280;27766;52.174;5.456;2023-07-31T01:48:49;100764.66;;;16.39;100.00
42111;BME280;27766;52.174;5.456;2023-07-31T01:51:16;100779.44;;;16.38;100.00
42111;BME280;27766;52.174;5.456;2023-07-31T01:53:43;100775.94;;;16.39;100.00
42111;BME280;27766;52.174;5.456;2023-07-31T01:56:11;100769.03;;;16.35;100.00
42111;BME280;27766;52.174;5.456;2023-07-31T01:58:38;100755.91;;;16.40;100.00
42111;BME280;27766;52.174;5.456;2023-07-31T02:01:05;100745.41;;;16.44;100.00
42111;BME280;27766;52.174;5.456;2023-07-31T02:03:32;100757.50;;;16.59;100.00
42111;BME280;27766;52.174;5.456;2023-07-31T02:08:42;100743.44;;;16.76;100.00
42111;BME280;27766;52.174;5.456;2023-07-31T02:11:09;100739.03;;;16.81;100.00
42111;BME280;27766;52.174;5.456;2023-07-31T02:13:36;100733.78;;;16.81;100.00
42111;BME280;27766;52.174;5.456;2023-07-31T02:16:03;100736.41;;;16.84;100.00
42111;BME280;27766;52.174;5.456;2023-07-31T02:18:30;100721.63;;;16.82;100.00
42111;BME280;27766;52.174;5.456;2023-07-31T02:20:58;100722.34;;;16.98;100.00
42111;BME280;27766;52.174;5.456;2023-07-31T02:23:25;100719.53;;;17.18;100.00
42111;BME280;27766;52.174;5.456;2023-07-31T02:25:52;100716.84;;;17.22;100.00
42111;BME280;27766;52.174;5.456;2023-07-31T02:28:19;100712.53;;;17.20;100.00
42111;BME280;27766;52.174;5.456;2023-07-31T02:30:46;100713.44;;;17.13;100.00
42111;BME280;27766;52.174;5.456;2023-07-31T02:33:14;100714.41;;;17.05;100.00
42111;BME280;27766;52.174;5.456;2023-07-31T02:35:41;100715.97;;;17.22;100.00
42111;BME280;27766;52.174;5.456;2023-07-31T02:38:09;100717.56;;;17.34;100.00
42111;BME280;27766;52.174;5.456;2023-07-31T02:40:36;100715.81;;;17.36;100.00
42111;BME280;27766;52.174;5.456;2023-07-31T02:43:03;100711.44;;;17.36;100.00
42111;BME280;27766;52.174;5.456;2023-07-31T02:45:30;100705.59;;;17.16;100.00
42111;BME280;27766;52.174;5.456;2023-07-31T02:47:57;100723.78;;;17.25;100.00
42111;BME280;27766;52.174;5.456;2023-07-31T02:50:25;100719.41;;;17.25;100.00
42111;BME280;27766;52.174;5.456;2023-07-31T02:52:52;100713.31;;;17.27;100.00
42111;BME280;27766;52.174;5.456;2023-07-31T02:55:19;100708.06;;;17.30;100.00
42111;BME280;27766;52.174;5.456;2023-07-31T02:57:46;100702.75;;;17.33;100.00
42111;BME280;27766;52.174;5.456;2023-07-31T03:00:14;100694.16;;;17.26;100.00
42111;BME280;27766;52.174;5.456;2023-07-31T03:02:41;100700.16;;;17.34;100.00
42111;BME280;27766;52.174;5.456;2023-07-31T03:05:09;100705.38;;;17.34;100.00
42111;BME280;27766;52.174;5.456;2023-07-31T03:07:36;100693.28;;;17.24;100.00
42111;BME280;27766;52.174;5.456;2023-07-31T03:10:03;100696.78;;;17.23;100.00
42111;BME280;27766;52.174;5.456;2023-07-31T03:12:30;100696.78;;;17.23;100.00
42111;BME280;27766;52.174;5.456;2023-07-31T03:14:58;100708.81;;;17.39;100.00
42111;BME280;27766;52.174;5.456;2023-07-31T03:17:25;100713.19;;;17.37;100.00
42111;BME280;27766;52.174;5.456;2023-07-31T03:19:52;100707.16;;;17.31;100.00
42111;BME280;27766;52.174;5.456;2023-07-31T03:22:19;100712.38;;;17.32;100.00
42111;BME280;27766;52.174;5.456;2023-07-31T03:24:46;100701.94;;;17.29;100.00
42111;BME280;27766;52.174;5.456;2023-07-31T03:27:13;100705.28;;;17.42;100.00
42111;BME280;27766;52.174;5.456;2023-07-31T03:29:40;100694.03;;;17.35;100.00
42111;BME280;27766;52.174;5.456;2023-07-31T03:32:07;100695.72;;;17.39;100.00
42111;BME280;27766;52.174;5.456;2023-07-31T03:34:35;100693.94;;;17.43;100.00
42111;BME280;27766;52.174;5.456;2023-07-31T03:37:02;100699.28;;;17.34;100.00
42111;BME280;27766;52.174;5.456;2023-07-31T03:39:29;100688.81;;;17.34;100.00
42111;BME280;27766;52.174;5.456;2023-07-31T03:41:56;100688.03;;;17.27;100.00
42111;BME280;27766;52.174;5.456;2023-07-31T03:44:23;100694.97;;;17.28;100.00
42111;BME280;27766;52.174;5.456;2023-07-31T03:46:50;100690.81;;;17.10;100.00
42111;BME280;27766;52.174;5.456;2023-07-31T03:49:18;100697.75;;;17.16;100.00
42111;BME280;27766;52.174;5.456;2023-07-31T03:51:45;100695.97;;;17.19;100.00
42111;BME280;27766;52.174;5.456;2023-07-31T03:54:13;100690.06;;;17.03;100.00
42111;BME280;27766;52.174;5.456;2023-07-31T03:56:41;100684.00;;;17.00;100.00
42111;BME280;27766;52.174;5.456;2023-07-31T03:59:08;100689.91;;;17.13;100.00
42111;BME280;27766;52.174;5.456;2023-07-31T04:01:35;100681.97;;;17.23;100.00
42111;BME280;27766;52.174;5.456;2023-07-31T04:04:03;100689.78;;;17.27;100.00
42111;BME280;27766;52.174;5.456;2023-07-31T04:06:30;100678.47;;;17.23;100.00
42111;BME280;27766;52.174;5.456;2023-07-31T04:08:58;100674.94;;;17.29;100.00
42111;BME280;27766;52.174;5.456;2023-07-31T04:11:25;100678.34;;;17.35;100.00
42111;BME280;27766;52.174;5.456;2023-07-31T04:13:52;100678.31;;;17.37;100.00
42111;BME280;27766;52.174;5.456;2023-07-31T04:16:19;100674.94;;;17.29;100.00
42111;BME280;27766;52.174;5.456;2023-07-31T04:18:46;100666.22;;;17.27;100.00
42111;BME280;27766;52.174;5.456;2023-07-31T04:21:14;100672.34;;;17.27;100.00
42111;BME280;27766;52.174;5.456;2023-07-31T04:23:41;100654.19;;;17.13;100.00
42111;BME280;27766;52.174;5.456;2023-07-31T04:26:08;100652.38;;;17.18;100.00
42111;BME280;27766;52.174;5.456;2023-07-31T04:28:36;100654.09;;;17.21;100.00
42111;BME280;27766;52.174;5.456;2023-07-31T04:31:03;100654.16;;;17.15;100.00
42111;BME280;27766;52.174;5.456;2023-07-31T04:33:30;100649.94;;;17.04;100.00
42111;BME280;27766;52.174;5.456;2023-07-31T04:36:03;100657.63;;;17.20;100.00
42111;BME280;27766;52.174;5.456;2023-07-31T04:38:30;100655.03;;;17.17;100.00
42111;BME280;27766;52.174;5.456;2023-07-31T04:40:57;100653.41;;;17.08;100.00
42111;BME280;27766;52.174;5.456;2023-07-31T04:43:25;100653.38;;;17.06;100.00
42111;BME280;27766;52.174;5.456;2023-07-31T04:45:52;100656.97;;;16.99;100.00
42111;BME280;27766;52.174;5.456;2023-07-31T04:48:22;100651.78;;;16.96;100.00
42111;BME280;27766;52.174;5.456;2023-07-31T04:50:49;100656.78;;;17.16;100.00
42111;BME280;27766;52.174;5.456;2023-07-31T04:53:16;100657.66;;;17.14;100.00
42111;BME280;27766;52.174;5.456;2023-07-31T04:55:43;100645.66;;;16.99;100.00
42111;BME280;27766;52.174;5.456;2023-07-31T04:58:11;100643.91;;;16.99;100.00
42111;BME280;27766;52.174;5.456;2023-07-31T05:00:38;100644.03;;;16.84;100.00
42111;BME280;27766;52.174;5.456;2023-07-31T05:03:05;100632.75;;;16.82;100.00
42111;BME280;27766;52.174;5.456;2023-07-31T05:05:33;100628.44;;;16.76;100.00
42111;BME280;27766;52.174;5.456;2023-07-31T05:08:00;100626.84;;;16.64;100.00
42111;BME280;27766;52.174;5.456;2023-07-31T05:10:28;100627.63;;;16.72;100.00
42111;BME280;27766;52.174;5.456;2023-07-31T05:12:55;100626.78;;;16.69;100.00
42111;BME280;27766;52.174;5.456;2023-07-31T05:15:22;100628.47;;;16.73;100.00
42111;BME280;27766;52.174;5.456;2023-07-31T05:17:50;100623.16;;;16.79;100.00
42111;BME280;27766;52.174;5.456;2023-07-31T05:20:17;100622.28;;;16.83;100.00
42111;BME280;27766;52.174;5.456;2023-07-31T05:22:44;100621.38;;;16.86;100.00
42111;BME280;27766;52.174;5.456;2023-07-31T05:25:12;100621.28;;;16.92;100.00
42111;BME280;27766;52.174;5.456;2023-07-31T05:27:39;100616.13;;;16.89;100.00
42111;BME280;27766;52.174;5.456;2023-07-31T05:30:06;100621.28;;;16.97;100.00
42111;BME280;27766;52.174;5.456;2023-07-31T05:32:34;100613.47;;;16.95;100.00
42111;BME280;27766;52.174;5.456;2023-07-31T05:35:01;100616.09;;;16.90;100.00
42111;BME280;27766;52.174;5.456;2023-07-31T05:37:28;100615.28;;;16.84;100.00
42111;BME280;27766;52.174;5.456;2023-07-31T05:39:56;100603.16;;;16.80;100.00
42111;BME280;27766;52.174;5.456;2023-07-31T05:42:23;100603.06;;;16.86;100.00
42111;BME280;27766;52.174;5.456;2023-07-31T05:44:50;100604.06;;;16.74;100.00
42111;BME280;27766;52.174;5.456;2023-07-31T05:47:17;100597.94;;;16.78;100.00
42111;BME280;27766;52.174;5.456;2023-07-31T05:49:46;100602.22;;;16.84;100.00
42111;BME280;27766;52.174;5.456;2023-07-31T05:52:13;100589.25;;;16.74;100.00
42111;BME280;27766;52.174;5.456;2023-07-31T05:54:40;100592.78;;;16.73;100.00
42111;BME280;27766;52.174;5.456;2023-07-31T05:57:07;100589.31;;;16.71;100.00
42111;BME280;27766;52.174;5.456;2023-07-31T05:59:34;100586.72;;;16.70;100.00
42111;BME280;27766;52.174;5.456;2023-07-31T06:02:01;100591.75;;;16.87;100.00
42111;BME280;27766;52.174;5.456;2023-07-31T06:04:29;100582.28;;;16.78;100.00
42111;BME280;27766;52.174;5.456;2023-07-31T06:06:56;100576.16;;;16.77;100.00
42111;BME280;27766;52.174;5.456;2023-07-31T06:09:23;100583.09;;;16.80;100.00
42111;BME280;27766;52.174;5.456;2023-07-31T06:11:51;100582.09;;;16.92;100.00
42111;BME280;27766;52.174;5.456;2023-07-31T06:14:18;100579.41;;;16.98;100.00
42111;BME280;27766;52.174;5.456;2023-07-31T06:16:46;100563.69;;;17.04;100.00
42111;BME280;27766;52.174;5.456;2023-07-31T06:19:13;100569.72;;;17.06;100.00
42111;BME280;27766;52.174;5.456;2023-07-31T06:21:40;100574.91;;;17.11;100.00
42111;BME280;27766;52.174;5.456;2023-07-31T06:24:09;100570.50;;;17.15;100.00
42111;BME280;27766;52.174;5.456;2023-07-31T06:26:36;100565.16;;;17.24;100.00
42111;BME280;27766;52.174;5.456;2023-07-31T06:29:04;100565.25;;;17.15;100.00
42111;BME280;27766;52.174;5.456;2023-07-31T06:31:31;100554.06;;;17.05;100.00
42111;BME280;27766;52.174;5.456;2023-07-31T06:33:59;100554.94;;;17.07;100.00
42111;BME280;27766;52.174;5.456;2023-07-31T06:36:26;100545.44;;;16.98;100.00
42111;BME280;27766;52.174;5.456;2023-07-31T06:38:54;100557.53;;;17.05;100.00
42111;BME280;27766;52.174;5.456;2023-07-31T06:41:21;100546.41;;;16.92;100.00
42111;BME280;27766;52.174;5.456;2023-07-31T06:43:48;100544.47;;;17.07;100.00
42111;BME280;27766;52.174;5.456;2023-07-31T06:46:16;100536.63;;;17.07;100.00
42111;BME280;27766;52.174;5.456;2023-07-31T06:48:43;100542.72;;;17.06;100.00
42111;BME280;27766;52.174;5.456;2023-07-31T06:51:11;100533.94;;;17.12;100.00
42111;BME280;27766;52.174;5.456;2023-07-31T06:53:38;100534.69;;;17.21;100.00
42111;BME280;27766;52.174;5.456;2023-07-31T06:56:05;100525.88;;;17.25;100.00
42111;BME280;27766;52.174;5.456;2023-07-31T06:58:32;100526.09;;;17.10;100.00
42111;BME280;27766;52.174;5.456;2023-07-31T07:01:00;100524.91;;;17.33;100.00
42111;BME280;27766;52.174;5.456;2023-07-31T07:03:28;100523.28;;;17.27;100.00
42111;BME280;27766;52.174;5.456;2023-07-31T07:05:55;100531.13;;;17.25;100.00
42111;BME280;27766;52.174;5.456;2023-07-31T07:08:22;100523.28;;;17.27;100.00
42111;BME280;27766;52.174;5.456;2023-07-31T07:10:53;100514.50;;;17.28;100.00
42111;BME280;27766;52.174;5.456;2023-07-31T07:13:21;100520.50;;;17.36;100.00
42111;BME280;27766;52.174;5.456;2023-07-31T07:15:49;100520.72;;;17.21;100.00
42111;BME280;27766;52.174;5.456;2023-07-31T07:18:17;100524.97;;;17.30;100.00
42111;BME280;27766;52.174;5.456;2023-07-31T07:20:49;100514.41;;;17.36;100.00
42111;BME280;27766;52.174;5.456;2023-07-31T07:23:17;100521.47;;;17.29;100.00
42111;BME280;27766;52.174;5.456;2023-07-31T07:25:46;100515.41;;;17.27;100.00
42111;BME280;27766;52.174;5.456;2023-07-31T07:28:14;100517.78;;;17.44;100.00
42111;BME280;27766;52.174;5.456;2023-07-31T07:30:41;100512.44;;;17.50;100.00
42111;BME280;27766;52.174;5.456;2023-07-31T07:33:09;100520.31;;;17.49;100.00
42111;BME280;27766;52.174;5.456;2023-07-31T07:35:36;100519.59;;;17.37;100.00
42111;BME280;27766;52.174;5.456;2023-07-31T07:38:03;100511.00;;;17.29;100.00
42111;BME280;27766;52.174;5.456;2023-07-31T07:40:30;100521.25;;;17.45;100.00
42111;BME280;27766;52.174;5.456;2023-07-31T07:42:57;100519.44;;;17.50;100.00
42111;BME280;27766;52.174;5.456;2023-07-31T07:45:27;100511.44;;;17.58;100.00
42111;BME280;27766;52.174;5.456;2023-07-31T07:47:54;100508.72;;;17.65;100.00
42111;BME280;27766;52.174;5.456;2023-07-31T07:50:22;100507.63;;;17.79;100.00
42111;BME280;27766;52.174;5.456;2023-07-31T07:52:49;100504.16;;;17.77;100.00
42111;BME280;27766;52.174;5.456;2023-07-31T07:55:16;100506.84;;;17.72;100.00
42111;BME280;27766;52.174;5.456;2023-07-31T07:57:43;100506.63;;;17.86;100.00
42111;BME280;27766;52.174;5.456;2023-07-31T08:00:13;100501.47;;;17.81;100.00
42111;BME280;27766;52.174;5.456;2023-07-31T08:02:41;100490.28;;;17.71;100.00
42111;BME280;27766;52.174;5.456;2023-07-31T08:05:08;100498.06;;;17.76;100.00
42111;BME280;27766;52.174;5.456;2023-07-31T08:07:35;100492.03;;;17.71;100.00
42111;BME280;27766;52.174;5.456;2023-07-31T08:10:03;100491.84;;;17.83;100.00
42111;BME280;27766;52.174;5.456;2023-07-31T08:12:30;100491.81;;;17.85;100.00
42111;BME280;27766;52.174;5.456;2023-07-31T08:14:57;100484.72;;;17.90;100.00
42111;BME280;27766;52.174;5.456;2023-07-31T08:17:27;100485.56;;;17.92;100.00
42111;BME280;27766;52.174;5.456;2023-07-31T08:19:55;100483.66;;;18.03;100.00
42111;BME280;27766;52.174;5.456;2023-07-31T08:22:25;100487.13;;;18.04;100.00
42111;BME280;27766;52.174;5.456;2023-07-31T08:24:52;100477.47;;;18.08;100.00
42111;BME280;27766;52.174;5.456;2023-07-31T08:27:20;100486.16;;;18.10;100.00
42111;BME280;27766;52.174;5.456;2023-07-31T08:29:47;100474.03;;;18.04;100.00
42111;BME280;27766;52.174;5.456;2023-07-31T08:32:15;100477.50;;;18.04;100.00
42111;BME280;27766;52.174;5.456;2023-07-31T08:34:42;100474.78;;;18.11;100.00
42111;BME280;27766;52.174;5.456;2023-07-31T08:37:09;100481.59;;;18.19;100.00
42111;BME280;27766;52.174;5.456;2023-07-31T08:39:37;100469.25;;;18.26;100.00
42111;BME280;27766;52.174;5.456;2023-07-31T08:42:09;100471.66;;;18.35;100.00
42111;BME280;27766;52.174;5.456;2023-07-31T08:44:37;100476.28;;;18.24;100.00
42111;BME280;27766;52.174;5.456;2023-07-31T08:47:05;100466.69;;;18.23;100.00
42111;BME280;27766;52.174;5.456;2023-07-31T08:49:33;100462.69;;;18.49;100.00
42111;BME280;27766;52.174;5.456;2023-07-31T08:52:01;100463.41;;;18.56;100.00
42111;BME280;27766;52.174;5.456;2023-07-31T08:54:29;100478.03;;;18.66;100.00
42111;BME280;27766;52.174;5.456;2023-07-31T08:56:58;100468.38;;;18.27;100.00
42111;BME280;27766;52.174;5.456;2023-07-31T08:59:30;100457.44;;;18.49;100.00
42111;BME280;27766;52.174;5.456;2023-07-31T09:02:04;100463.41;;;18.57;100.00
42111;BME280;27766;52.174;5.456;2023-07-31T09:04:32;100457.91;;;18.68;100.00
42111;BME280;27766;52.174;5.456;2023-07-31T09:07:03;100470.00;;;18.75;100.00
42111;BME280;27766;52.174;5.456;2023-07-31T09:09:31;100461.69;;;18.97;100.00
42111;BME280;27766;52.174;5.456;2023-07-31T09:11:59;100467.66;;;19.04;100.00
42111;BME280;27766;52.174;5.456;2023-07-31T09:14:26;100471.63;;;19.20;100.00
42111;BME280;27766;52.174;5.456;2023-07-31T09:16:55;100462.75;;;19.26;100.00
42111;BME280;27766;52.174;5.456;2023-07-31T09:19:32;100456.88;;;19.16;100.00
42111;BME280;27766;52.174;5.456;2023-07-31T09:22:00;100451.19;;;18.97;100.00
42111;BME280;27766;52.174;5.456;2023-07-31T09:24:32;100455.25;;;19.10;100.00
42111;BME280;27766;52.174;5.456;2023-07-31T09:27:03;100453.66;;;19.03;100.00
42111;BME280;27766;52.174;5.456;2023-07-31T09:29:30;100451.66;;;19.14;100.00
42111;BME280;27766;52.174;5.456;2023-07-31T09:31:57;100448.25;;;19.09;100.00
42111;BME280;27766;52.174;5.456;2023-07-31T09:34:37;100450.00;;;19.10;100.00
42111;BME280;27766;52.174;5.456;2023-07-31T09:37:07;100446.84;;;19.34;100.00
42111;BME280;27766;52.174;5.456;2023-07-31T09:39:46;100445.06;;;19.34;100.00
42111;BME280;27766;52.174;5.456;2023-07-31T09:42:13;100444.88;;;19.42;100.00
42111;BME280;27766;52.174;5.456;2023-07-31T09:44:41;100448.16;;;19.50;100.00
42111;BME280;27766;52.174;5.456;2023-07-31T09:47:24;100451.81;;;19.43;100.00
42111;BME280;27766;52.174;5.456;2023-07-31T09:49:52;100445.72;;;19.42;100.00
42111;BME280;27766;52.174;5.456;2023-07-31T09:52:20;100441.44;;;19.40;100.00
42111;BME280;27766;52.174;5.456;2023-07-31T09:54:47;100450.03;;;19.45;100.00
42111;BME280;27766;52.174;5.456;2023-07-31T09:57:16;100445.09;;;19.33;100.00
42111;BME280;27766;52.174;5.456;2023-07-31T09:59:47;100455.78;;;19.25;100.00
42111;BME280;27766;52.174;5.456;2023-07-31T10:02:20;100449.81;;;19.18;100.00
42111;BME280;27766;52.174;5.456;2023-07-31T10:04:49;100440.81;;;19.30;100.00
42111;BME280;27766;52.174;5.456;2023-07-31T10:07:18;100445.13;;;19.31;100.00
42111;BME280;27766;52.174;5.456;2023-07-31T10:09:46;100442.03;;;19.15;100.00
42111;BME280;27766;52.174;5.456;2023-07-31T10:12:16;100439.13;;;19.26;100.00
42111;BME280;27766;52.174;5.456;2023-07-31T10:14:46;100438.06;;;19.35;100.00
42111;BME280;27766;52.174;5.456;2023-07-31T10:17:14;100447.63;;;19.37;100.00
42111;BME280;27766;52.174;5.456;2023-07-31T10:19:42;100453.66;;;19.39;100.00
42111;BME280;27766;52.174;5.456;2023-07-31T10:22:10;100448.56;;;19.33;100.00
42111;BME280;27766;52.174;5.456;2023-07-31T10:24:39;100447.31;;;19.50;100.00
42111;BME280;27766;52.174;5.456;2023-07-31T10:27:08;100452.63;;;19.46;100.00
42111;BME280;27766;52.174;5.456;2023-07-31T10:29:38;100443.69;;;19.19;100.00
42111;BME280;27766;52.174;5.456;2023-07-31T10:32:07;100438.06;;;19.35;100.00
42111;BME280;27766;52.174;5.456;2023-07-31T10:34:39;100437.06;;;19.39;100.00
42111;BME280;27766;52.174;5.456;2023-07-31T10:37:30;100444.69;;;19.50;100.00
42111;BME280;27766;52.174;5.456;2023-07-31T10:40:04;100441.19;;;19.49;100.00
42111;BME280;27766;52.174;5.456;2023-07-31T10:42:34;100440.00;;;19.26;100.00
42111;BME280;27766;52.174;5.456;2023-07-31T10:45:05;100439.69;;;19.39;100.00
42111;BME280;27766;52.174;5.456;2023-07-31T10:47:37;100444.06;;;19.40;100.00
42111;BME280;27766;52.174;5.456;2023-07-31T10:50:18;100447.94;;;19.23;100.00
42111;BME280;27766;52.174;5.456;2023-07-31T10:52:47;100446.00;;;19.32;100.00
42111;BME280;27766;52.174;5.456;2023-07-31T10:55:31;100448.66;;;19.30;100.00
42111;BME280;27766;52.174;5.456;2023-07-31T10:58:07;100446.56;;;19.43;100.00
42111;BME280;27766;52.174;5.456;2023-07-31T11:00:38;100440.22;;;19.17;100.00
42111;BME280;27766;52.174;5.456;2023-07-31T11:03:18;100437.38;;;19.26;100.00
42111;BME280;27766;52.174;5.456;2023-07-31T11:05:52;100436.19;;;19.40;100.00
42111;BME280;27766;52.174;5.456;2023-07-31T11:08:28;100442.06;;;19.50;100.00
42111;BME280;27766;52.174;5.456;2023-07-31T11:13:30;100440.22;;;19.53;100.00
42111;BME280;27766;52.174;5.456;2023-07-31T11:15:58;100441.72;;;19.64;100.00
42111;BME280;27766;52.174;5.456;2023-07-31T11:18:28;100442.28;;;19.75;100.00
42111;BME280;27766;52.174;5.456;2023-07-31T11:20:55;100431.66;;;19.80;100.00
42111;BME280;27766;52.174;5.456;2023-07-31T11:23:23;100436.84;;;19.81;100.00
42111;BME280;27766;52.174;5.456;2023-07-31T11:25:51;100433.16;;;19.90;100.00
42111;BME280;27766;52.174;5.456;2023-07-31T11:28:21;100429.63;;;19.91;100.00
42111;BME280;27766;52.174;5.456;2023-07-31T11:30:49;100437.63;;;19.86;100.00
42111;BME280;27766;52.174;5.456;2023-07-31T11:33:16;100442.06;;;19.84;100.00
42111;BME280;27766;52.174;5.456;2023-07-31T11:35:45;100422.38;;;19.66;100.00
42111;BME280;27766;52.174;5.456;2023-07-31T11:38:32;100425.66;;;19.74;100.00
42111;BME280;27766;52.174;5.456;2023-07-31T11:41:02;100435.47;;;19.68;100.00
42111;BME280;27766;52.174;5.456;2023-07-31T11:43:33;100423.09;;;19.73;100.00
42111;BME280;27766;52.174;5.456;2023-07-31T11:46:01;100433.22;;;19.88;100.00
42111;BME280;27766;52.174;5.456;2023-07-31T11:48:32;100425.63;;;19.76;100.00
42111;BME280;27766;52.174;5.456;2023-07-31T11:51:08;100426.63;;;19.70;100.00
42111;BME280;27766;52.174;5.456;2023-07-31T11:53:57;100440.53;;;19.74;100.00
42111;BME280;27766;52.174;5.456;2023-07-31T11:56:26;100431.88;;;19.72;100.00
42111;BME280;27766;52.174;5.456;2023-07-31T11:58:58;100417.25;;;19.61;100.00
42111;BME280;27766;52.174;5.456;2023-07-31T12:01:27;100422.56;;;19.58;100.00
42111;BME280;27766;52.174;5.456;2023-07-31T12:03:55;100409.44;;;19.58;100.00
42111;BME280;27766;52.174;5.456;2023-07-31T12:06:32;100423.41;;;19.60;100.00
42111;BME280;27766;52.174;5.456;2023-07-31T12:09:03;100423.22;;;19.67;100.00
42111;BME280;27766;52.174;5.456;2023-07-31T12:11:31;100428.41;;;19.70;100.00
42111;BME280;27766;52.174;5.456;2023-07-31T12:13:59;100425.66;;;19.74;100.00
42111;BME280;27766;52.174;5.456;2023-07-31T12:16:27;100432.34;;;19.53;100.00
42111;BME280;27766;52.174;5.456;2023-07-31T12:18:56;100432.94;;;19.63;100.00
42111;BME280;27766;52.174;5.456;2023-07-31T12:21:23;100425.28;;;19.55;100.00
42111;BME280;27766;52.174;5.456;2023-07-31T12:23:54;100421.59;;;19.63;100.00
42111;BME280;27766;52.174;5.456;2023-07-31T12:26:22;100431.09;;;19.67;100.00
42111;BME280;27766;52.174;5.456;2023-07-31T12:28:50;100419.47;;;19.77;100.00
42111;BME280;27766;52.174;5.456;2023-07-31T12:31:20;100424.28;;;19.61;100.00
42111;BME280;27766;52.174;5.456;2023-07-31T12:33:50;100414.44;;;19.69;100.00
42111;BME280;27766;52.174;5.456;2023-07-31T12:36:22;100396.75;;;19.76;100.00
42111;BME280;27766;52.174;5.456;2023-07-31T12:38:51;100398.53;;;19.75;100.00
42111;BME280;27766;52.174;5.456;2023-07-31T12:41:19;100394.72;;;19.87;100.00
42111;BME280;27766;52.174;5.456;2023-07-31T12:43:46;100397.22;;;19.92;100.00
42111;BME280;27766;52.174;5.456;2023-07-31T12:46:13;100398.81;;;19.63;100.00
42111;BME280;27766;52.174;5.456;2023-07-31T12:48:42;100394.00;;;19.81;100.00
42111;BME280;27766;52.174;5.456;2023-07-31T12:51:09;100397.53;;;19.80;100.00
42111;BME280;27766;52.174;5.456;2023-07-31T12:53:36;100400.47;;;19.67;100.00
42111;BME280;27766;52.174;5.456;2023-07-31T12:56:03;100394.84;;;19.81;100.00
42111;BME280;27766;52.174;5.456;2023-07-31T12:58:31;100387.50;;;19.96;100.00